< < Back
Terminal Aerodrome Forecast


Current Version              Previous Versions:   1  2  3  4  5  6  7  8  9  

Terminal Aerodrome Forecast

119
FTUS42 KFFC 190409 AAD
TAFATL
TAF AMD
KATL 190409Z 1904/2006 13006KT P6SM SCT008 BKN015
      TEMPO 1904/1906 BKN004
     FM190600 13005KT 6SM -RA OVC010
     FM190900 13006KT 4SM -SHRA BR OVC009
      TEMPO 1912/1915 4SM -TSRA BKN010CB
     FM191500 19010G18KT 4SM -TSRA BKN010CB OVC025
     FM191700 21012G20KT P6SM BKN015
     FM192100 22010G16KT P6SM BKN030
     FM200000 23007KT P6SM BKN025=

Latest METAR

539
SAUS70 KWBC 190900 RRE
MTRATL
METAR KATL 190852Z 14006KT 1 1/2SM -RA BR SCT004 BKN008 OVC036 19/18
A2986 RMK AO2 SLP106 P0016 60020 T01940178 56020


USA.gov is the U.S. government's official web portal to all federal, state and local government web resources and services.